sensor_id;sensor_type;location;lat;lon;timestamp;P1;durP1;ratioP1;P2;durP2;ratioP2
44139;SDS011;29803;51.048;4.686;2023-09-19T00:01:03;16.55;;;3.10;;
44139;SDS011;29803;51.048;4.686;2023-09-19T00:03:36;17.00;;;3.13;;
44139;SDS011;29803;51.048;4.686;2023-09-19T00:06:07;13.85;;;2.80;;
44139;SDS011;29803;51.048;4.686;2023-09-19T00:08:38;15.05;;;3.00;;
44139;SDS011;29803;51.048;4.686;2023-09-19T00:11:08;12.35;;;2.35;;
44139;SDS011;29803;51.048;4.686;2023-09-19T00:13:40;14.30;;;3.53;;
44139;SDS011;29803;51.048;4.686;2023-09-19T00:16:11;11.88;;;2.20;;
44139;SDS011;29803;51.048;4.686;2023-09-19T00:18:42;13.23;;;2.30;;
44139;SDS011;29803;51.048;4.686;2023-09-19T00:21:12;15.20;;;2.70;;
44139;SDS011;29803;51.048;4.686;2023-09-19T00:23:43;16.40;;;2.90;;
44139;SDS011;29803;51.048;4.686;2023-09-19T00:26:13;13.50;;;2.55;;
44139;SDS011;29803;51.048;4.686;2023-09-19T00:28:44;11.15;;;2.65;;
44139;SDS011;29803;51.048;4.686;2023-09-19T00:31:14;14.43;;;2.42;;
44139;SDS011;29803;51.048;4.686;2023-09-19T00:33:45;16.58;;;2.83;;
44139;SDS011;29803;51.048;4.686;2023-09-19T00:36:15;17.83;;;2.85;;
44139;SDS011;29803;51.048;4.686;2023-09-19T00:38:46;13.20;;;2.65;;
44139;SDS011;29803;51.048;4.686;2023-09-19T00:41:17;14.25;;;2.67;;
44139;SDS011;29803;51.048;4.686;2023-09-19T00:43:47;14.23;;;2.40;;
44139;SDS011;29803;51.048;4.686;2023-09-19T00:46:18;22.67;;;3.10;;
44139;SDS011;29803;51.048;4.686;2023-09-19T00:48:48;16.50;;;2.03;;
44139;SDS011;29803;51.048;4.686;2023-09-19T00:51:19;16.40;;;2.83;;
44139;SDS011;29803;51.048;4.686;2023-09-19T00:53:52;9.52;;;1.98;;
44139;SDS011;29803;51.048;4.686;2023-09-19T00:56:22;12.60;;;2.60;;
44139;SDS011;29803;51.048;4.686;2023-09-19T00:58:53;18.52;;;2.95;;
44139;SDS011;29803;51.048;4.686;2023-09-19T01:01:23;12.90;;;2.53;;
44139;SDS011;29803;51.048;4.686;2023-09-19T01:03:55;16.85;;;2.47;;
44139;SDS011;29803;51.048;4.686;2023-09-19T01:06:35;14.50;;;2.85;;
44139;SDS011;29803;51.048;4.686;2023-09-19T01:09:06;14.38;;;2.92;;
44139;SDS011;29803;51.048;4.686;2023-09-19T01:11:40;17.05;;;3.30;;
44139;SDS011;29803;51.048;4.686;2023-09-19T01:14:21;13.50;;;3.03;;
44139;SDS011;29803;51.048;4.686;2023-09-19T01:22:37;14.00;;;2.92;;
44139;SDS011;29803;51.048;4.686;2023-09-19T01:30:56;17.20;;;2.42;;
44139;SDS011;29803;51.048;4.686;2023-09-19T01:33:53;13.05;;;2.38;;
44139;SDS011;29803;51.048;4.686;2023-09-19T01:36:28;13.65;;;2.65;;
44139;SDS011;29803;51.048;4.686;2023-09-19T01:39:00;13.30;;;2.85;;
44139;SDS011;29803;51.048;4.686;2023-09-19T01:41:56;20.08;;;3.35;;
44139;SDS011;29803;51.048;4.686;2023-09-19T01:44:38;21.02;;;2.90;;
44139;SDS011;29803;51.048;4.686;2023-09-19T01:47:28;16.10;;;2.67;;
44139;SDS011;29803;51.048;4.686;2023-09-19T01:50:11;11.95;;;2.90;;
44139;SDS011;29803;51.048;4.686;2023-09-19T01:52:49;10.98;;;2.80;;
44139;SDS011;29803;51.048;4.686;2023-09-19T01:55:26;15.38;;;2.80;;
44139;SDS011;29803;51.048;4.686;2023-09-19T02:00:36;12.77;;;2.35;;
44139;SDS011;29803;51.048;4.686;2023-09-19T02:03:08;13.27;;;2.20;;
44139;SDS011;29803;51.048;4.686;2023-09-19T02:05:40;11.07;;;2.70;;
44139;SDS011;29803;51.048;4.686;2023-09-19T02:08:11;21.33;;;2.75;;
44139;SDS011;29803;51.048;4.686;2023-09-19T02:10:41;15.80;;;2.90;;
44139;SDS011;29803;51.048;4.686;2023-09-19T02:13:12;15.27;;;2.60;;
44139;SDS011;29803;51.048;4.686;2023-09-19T02:15:44;15.60;;;2.58;;
44139;SDS011;29803;51.048;4.686;2023-09-19T02:18:15;16.52;;;2.63;;
44139;SDS011;29803;51.048;4.686;2023-09-19T02:20:47;19.98;;;3.30;;
44139;SDS011;29803;51.048;4.686;2023-09-19T02:23:17;12.38;;;2.97;;
44139;SDS011;29803;51.048;4.686;2023-09-19T02:25:54;7.47;;;2.47;;
44139;SDS011;29803;51.048;4.686;2023-09-19T02:28:27;21.55;;;3.63;;
44139;SDS011;29803;51.048;4.686;2023-09-19T02:31:04;19.42;;;2.95;;
44139;SDS011;29803;51.048;4.686;2023-09-19T02:33:35;11.63;;;2.42;;
44139;SDS011;29803;51.048;4.686;2023-09-19T02:36:07;15.80;;;2.60;;
44139;SDS011;29803;51.048;4.686;2023-09-19T02:38:38;14.70;;;3.15;;
44139;SDS011;29803;51.048;4.686;2023-09-19T02:41:09;14.10;;;2.40;;
44139;SDS011;29803;51.048;4.686;2023-09-19T02:43:39;16.80;;;3.00;;
44139;SDS011;29803;51.048;4.686;2023-09-19T02:46:10;16.95;;;2.78;;
44139;SDS011;29803;51.048;4.686;2023-09-19T02:48:41;17.55;;;3.28;;
44139;SDS011;29803;51.048;4.686;2023-09-19T02:51:12;15.60;;;2.53;;
44139;SDS011;29803;51.048;4.686;2023-09-19T02:53:43;12.25;;;2.22;;
44139;SDS011;29803;51.048;4.686;2023-09-19T02:56:14;20.10;;;3.08;;
44139;SDS011;29803;51.048;4.686;2023-09-19T02:58:45;16.48;;;2.97;;
44139;SDS011;29803;51.048;4.686;2023-09-19T03:01:18;23.05;;;2.72;;
44139;SDS011;29803;51.048;4.686;2023-09-19T03:03:49;16.50;;;3.17;;
44139;SDS011;29803;51.048;4.686;2023-09-19T03:06:20;15.65;;;2.70;;
44139;SDS011;29803;51.048;4.686;2023-09-19T03:08:51;22.33;;;3.67;;
44139;SDS011;29803;51.048;4.686;2023-09-19T03:11:22;15.82;;;2.58;;
44139;SDS011;29803;51.048;4.686;2023-09-19T03:13:53;19.85;;;3.38;;
44139;SDS011;29803;51.048;4.686;2023-09-19T03:16:24;16.15;;;3.15;;
44139;SDS011;29803;51.048;4.686;2023-09-19T03:18:55;13.55;;;2.58;;
44139;SDS011;29803;51.048;4.686;2023-09-19T03:21:26;10.98;;;2.83;;
44139;SDS011;29803;51.048;4.686;2023-09-19T03:23:56;18.17;;;2.33;;
44139;SDS011;29803;51.048;4.686;2023-09-19T03:26:27;14.98;;;3.15;;
44139;SDS011;29803;51.048;4.686;2023-09-19T03:28:57;15.52;;;2.90;;
44139;SDS011;29803;51.048;4.686;2023-09-19T03:31:28;9.18;;;2.38;;
44139;SDS011;29803;51.048;4.686;2023-09-19T03:33:58;15.55;;;2.97;;
44139;SDS011;29803;51.048;4.686;2023-09-19T03:36:29;19.00;;;3.13;;
44139;SDS011;29803;51.048;4.686;2023-09-19T03:39:00;15.10;;;2.50;;
44139;SDS011;29803;51.048;4.686;2023-09-19T03:41:31;13.63;;;2.45;;
44139;SDS011;29803;51.048;4.686;2023-09-19T03:44:03;14.25;;;2.58;;
44139;SDS011;29803;51.048;4.686;2023-09-19T03:46:34;14.85;;;2.45;;
44139;SDS011;29803;51.048;4.686;2023-09-19T03:49:06;16.13;;;2.47;;
44139;SDS011;29803;51.048;4.686;2023-09-19T03:51:36;15.40;;;2.03;;
44139;SDS011;29803;51.048;4.686;2023-09-19T03:54:07;14.65;;;3.08;;
44139;SDS011;29803;51.048;4.686;2023-09-19T03:56:38;11.00;;;2.28;;
44139;SDS011;29803;51.048;4.686;2023-09-19T03:59:08;11.25;;;2.83;;
44139;SDS011;29803;51.048;4.686;2023-09-19T04:01:39;16.10;;;2.38;;
44139;SDS011;29803;51.048;4.686;2023-09-19T04:04:11;12.82;;;2.33;;
44139;SDS011;29803;51.048;4.686;2023-09-19T04:06:44;17.10;;;2.25;;
44139;SDS011;29803;51.048;4.686;2023-09-19T04:09:14;14.63;;;2.88;;
44139;SDS011;29803;51.048;4.686;2023-09-19T04:11:45;11.85;;;2.00;;
44139;SDS011;29803;51.048;4.686;2023-09-19T04:14:16;14.23;;;2.65;;
44139;SDS011;29803;51.048;4.686;2023-09-19T04:16:46;18.33;;;2.83;;
44139;SDS011;29803;51.048;4.686;2023-09-19T04:19:17;15.63;;;2.55;;
44139;SDS011;29803;51.048;4.686;2023-09-19T04:21:47;17.60;;;2.78;;
44139;SDS011;29803;51.048;4.686;2023-09-19T04:24:18;16.83;;;2.65;;
44139;SDS011;29803;51.048;4.686;2023-09-19T04:26:49;19.45;;;3.08;;
44139;SDS011;29803;51.048;4.686;2023-09-19T04:29:19;24.95;;;3.50;;
44139;SDS011;29803;51.048;4.686;2023-09-19T04:31:50;20.95;;;3.95;;
44139;SDS011;29803;51.048;4.686;2023-09-19T04:34:22;15.43;;;2.53;;
44139;SDS011;29803;51.048;4.686;2023-09-19T04:36:53;16.83;;;2.65;;
44139;SDS011;29803;51.048;4.686;2023-09-19T04:39:26;21.92;;;2.60;;
44139;SDS011;29803;51.048;4.686;2023-09-19T04:41:57;18.38;;;3.15;;
44139;SDS011;29803;51.048;4.686;2023-09-19T04:44:29;19.98;;;3.13;;
44139;SDS011;29803;51.048;4.686;2023-09-19T04:46:59;24.67;;;3.35;;
44139;SDS011;29803;51.048;4.686;2023-09-19T04:49:30;16.35;;;2.60;;
44139;SDS011;29803;51.048;4.686;2023-09-19T04:52:00;13.18;;;2.90;;
44139;SDS011;29803;51.048;4.686;2023-09-19T04:54:31;15.50;;;2.72;;
44139;SDS011;29803;51.048;4.686;2023-09-19T04:57:01;18.55;;;2.70;;
44139;SDS011;29803;51.048;4.686;2023-09-19T04:59:32;18.13;;;2.70;;
44139;SDS011;29803;51.048;4.686;2023-09-19T05:02:02;15.05;;;2.90;;
44139;SDS011;29803;51.048;4.686;2023-09-19T05:04:33;17.95;;;2.40;;
44139;SDS011;29803;51.048;4.686;2023-09-19T05:07:04;17.73;;;3.17;;
44139;SDS011;29803;51.048;4.686;2023-09-19T05:09:34;15.15;;;2.03;;
44139;SDS011;29803;51.048;4.686;2023-09-19T05:12:07;14.93;;;3.13;;
44139;SDS011;29803;51.048;4.686;2023-09-19T05:14:40;13.52;;;2.58;;
44139;SDS011;29803;51.048;4.686;2023-09-19T05:17:11;22.85;;;4.00;;
44139;SDS011;29803;51.048;4.686;2023-09-19T05:19:43;23.50;;;3.25;;
44139;SDS011;29803;51.048;4.686;2023-09-19T05:22:14;41.33;;;3.47;;
44139;SDS011;29803;51.048;4.686;2023-09-19T05:24:44;17.80;;;3.35;;
44139;SDS011;29803;51.048;4.686;2023-09-19T05:27:18;24.20;;;3.67;;
44139;SDS011;29803;51.048;4.686;2023-09-19T05:29:51;15.00;;;2.92;;
44139;SDS011;29803;51.048;4.686;2023-09-19T05:32:23;21.70;;;3.10;;
44139;SDS011;29803;51.048;4.686;2023-09-19T05:34:53;23.27;;;3.80;;
44139;SDS011;29803;51.048;4.686;2023-09-19T05:37:26;14.75;;;2.72;;
44139;SDS011;29803;51.048;4.686;2023-09-19T05:39:57;15.50;;;2.60;;
44139;SDS011;29803;51.048;4.686;2023-09-19T05:42:27;13.70;;;2.78;;
44139;SDS011;29803;51.048;4.686;2023-09-19T05:44:58;12.48;;;2.63;;
44139;SDS011;29803;51.048;4.686;2023-09-19T05:47:28;15.63;;;2.88;;
44139;SDS011;29803;51.048;4.686;2023-09-19T05:49:59;25.50;;;3.17;;
44139;SDS011;29803;51.048;4.686;2023-09-19T05:52:29;17.85;;;2.97;;
44139;SDS011;29803;51.048;4.686;2023-09-19T05:55:00;20.65;;;2.50;;
44139;SDS011;29803;51.048;4.686;2023-09-19T05:57:30;16.77;;;3.15;;
44139;SDS011;29803;51.048;4.686;2023-09-19T06:00:01;12.48;;;2.17;;
44139;SDS011;29803;51.048;4.686;2023-09-19T06:02:32;18.75;;;3.03;;
44139;SDS011;29803;51.048;4.686;2023-09-19T06:05:04;12.75;;;2.60;;
44139;SDS011;29803;51.048;4.686;2023-09-19T06:07:36;22.55;;;3.92;;
44139;SDS011;29803;51.048;4.686;2023-09-19T06:10:07;21.05;;;3.08;;
44139;SDS011;29803;51.048;4.686;2023-09-19T06:12:40;20.30;;;3.22;;
44139;SDS011;29803;51.048;4.686;2023-09-19T06:15:15;15.80;;;2.90;;
44139;SDS011;29803;51.048;4.686;2023-09-19T06:17:49;11.80;;;3.00;;
44139;SDS011;29803;51.048;4.686;2023-09-19T06:20:20;13.52;;;3.00;;
44139;SDS011;29803;51.048;4.686;2023-09-19T06:22:52;22.42;;;3.80;;
44139;SDS011;29803;51.048;4.686;2023-09-19T06:25:23;18.25;;;3.20;;
44139;SDS011;29803;51.048;4.686;2023-09-19T06:27:54;18.10;;;3.40;;
44139;SDS011;29803;51.048;4.686;2023-09-19T06:30:25;19.42;;;3.10;;
44139;SDS011;29803;51.048;4.686;2023-09-19T06:32:56;15.90;;;3.15;;
44139;SDS011;29803;51.048;4.686;2023-09-19T06:35:28;20.05;;;2.72;;
44139;SDS011;29803;51.048;4.686;2023-09-19T06:38:03;21.08;;;3.33;;
44139;SDS011;29803;51.048;4.686;2023-09-19T06:40:34;20.35;;;3.25;;
44139;SDS011;29803;51.048;4.686;2023-09-19T06:43:05;18.70;;;4.07;;
44139;SDS011;29803;51.048;4.686;2023-09-19T06:45:35;15.73;;;2.95;;
44139;SDS011;29803;51.048;4.686;2023-09-19T06:48:06;21.55;;;3.22;;
44139;SDS011;29803;51.048;4.686;2023-09-19T06:50:37;14.82;;;3.08;;
44139;SDS011;29803;51.048;4.686;2023-09-19T06:53:08;15.70;;;2.35;;
44139;SDS011;29803;51.048;4.686;2023-09-19T06:55:40;14.68;;;2.53;;
44139;SDS011;29803;51.048;4.686;2023-09-19T06:58:11;18.88;;;2.45;;
44139;SDS011;29803;51.048;4.686;2023-09-19T07:00:41;13.85;;;2.60;;
44139;SDS011;29803;51.048;4.686;2023-09-19T07:03:13;16.85;;;2.65;;
44139;SDS011;29803;51.048;4.686;2023-09-19T07:05:47;12.17;;;2.30;;
44139;SDS011;29803;51.048;4.686;2023-09-19T07:08:18;14.88;;;2.53;;
44139;SDS011;29803;51.048;4.686;2023-09-19T07:10:50;10.77;;;3.10;;
44139;SDS011;29803;51.048;4.686;2023-09-19T07:13:24;10.93;;;2.40;;
44139;SDS011;29803;51.048;4.686;2023-09-19T07:15:55;14.88;;;2.35;;
44139;SDS011;29803;51.048;4.686;2023-09-19T07:18:29;12.87;;;2.90;;
44139;SDS011;29803;51.048;4.686;2023-09-19T07:21:00;11.60;;;2.22;;
44139;SDS011;29803;51.048;4.686;2023-09-19T07:23:34;15.10;;;2.80;;
44139;SDS011;29803;51.048;4.686;2023-09-19T07:26:05;16.33;;;2.67;;
44139;SDS011;29803;51.048;4.686;2023-09-19T07:28:35;12.75;;;2.47;;
44139;SDS011;29803;51.048;4.686;2023-09-19T07:31:06;11.02;;;2.40;;
44139;SDS011;29803;51.048;4.686;2023-09-19T07:33:40;15.48;;;2.60;;
44139;SDS011;29803;51.048;4.686;2023-09-19T07:36:11;13.90;;;2.20;;
44139;SDS011;29803;51.048;4.686;2023-09-19T07:38:43;7.88;;;2.50;;
44139;SDS011;29803;51.048;4.686;2023-09-19T07:41:14;19.20;;;2.70;;
44139;SDS011;29803;51.048;4.686;2023-09-19T07:43:44;15.77;;;3.17;;
44139;SDS011;29803;51.048;4.686;2023-09-19T07:46:15;15.32;;;2.60;;
44139;SDS011;29803;51.048;4.686;2023-09-19T07:48:45;12.95;;;2.75;;
44139;SDS011;29803;51.048;4.686;2023-09-19T07:51:18;12.98;;;2.97;;
44139;SDS011;29803;51.048;4.686;2023-09-19T07:53:49;12.85;;;2.65;;
44139;SDS011;29803;51.048;4.686;2023-09-19T07:56:19;16.38;;;2.72;;
44139;SDS011;29803;51.048;4.686;2023-09-19T07:58:50;15.20;;;3.25;;
44139;SDS011;29803;51.048;4.686;2023-09-19T08:01:22;17.85;;;3.05;;
44139;SDS011;29803;51.048;4.686;2023-09-19T08:03:54;11.93;;;2.70;;
44139;SDS011;29803;51.048;4.686;2023-09-19T08:06:24;19.63;;;3.30;;
44139;SDS011;29803;51.048;4.686;2023-09-19T08:09:00;11.18;;;2.28;;
44139;SDS011;29803;51.048;4.686;2023-09-19T08:11:37;13.90;;;3.25;;
44139;SDS011;29803;51.048;4.686;2023-09-19T08:14:09;17.05;;;3.50;;
44139;SDS011;29803;51.048;4.686;2023-09-19T08:19:14;15.73;;;2.65;;
44139;SDS011;29803;51.048;4.686;2023-09-19T08:21:46;15.02;;;2.70;;
44139;SDS011;29803;51.048;4.686;2023-09-19T08:24:17;20.88;;;2.65;;
44139;SDS011;29803;51.048;4.686;2023-09-19T08:26:49;15.57;;;2.63;;
44139;SDS011;29803;51.048;4.686;2023-09-19T08:29:23;14.63;;;2.90;;
44139;SDS011;29803;51.048;4.686;2023-09-19T08:31:57;14.60;;;2.67;;
44139;SDS011;29803;51.048;4.686;2023-09-19T08:34:28;13.80;;;2.97;;
44139;SDS011;29803;51.048;4.686;2023-09-19T08:37:04;14.70;;;3.22;;
44139;SDS011;29803;51.048;4.686;2023-09-19T08:39:34;18.88;;;2.70;;
44139;SDS011;29803;51.048;4.686;2023-09-19T08:42:07;20.52;;;2.97;;
44139;SDS011;29803;51.048;4.686;2023-09-19T08:44:38;14.68;;;2.40;;
44139;SDS011;29803;51.048;4.686;2023-09-19T08:47:11;13.88;;;2.72;;
44139;SDS011;29803;51.048;4.686;2023-09-19T08:49:52;11.30;;;2.58;;
44139;SDS011;29803;51.048;4.686;2023-09-19T08:52:28;18.58;;;3.03;;
44139;SDS011;29803;51.048;4.686;2023-09-19T08:55:07;14.20;;;2.72;;
44139;SDS011;29803;51.048;4.686;2023-09-19T08:57:41;17.13;;;3.55;;
44139;SDS011;29803;51.048;4.686;2023-09-19T09:00:14;15.15;;;2.78;;
44139;SDS011;29803;51.048;4.686;2023-09-19T09:02:47;17.90;;;2.97;;
44139;SDS011;29803;51.048;4.686;2023-09-19T09:05:20;13.60;;;2.55;;
44139;SDS011;29803;51.048;4.686;2023-09-19T09:07:53;19.70;;;2.90;;
44139;SDS011;29803;51.048;4.686;2023-09-19T09:10:26;11.65;;;2.47;;
44139;SDS011;29803;51.048;4.686;2023-09-19T09:12:57;12.48;;;2.33;;
44139;SDS011;29803;51.048;4.686;2023-09-19T09:15:28;12.05;;;2.40;;
44139;SDS011;29803;51.048;4.686;2023-09-19T09:18:02;12.30;;;2.60;;
44139;SDS011;29803;51.048;4.686;2023-09-19T09:20:35;8.43;;;2.45;;
44139;SDS011;29803;51.048;4.686;2023-09-19T09:23:06;11.52;;;2.75;;
44139;SDS011;29803;51.048;4.686;2023-09-19T09:25:53;11.93;;;2.72;;
44139;SDS011;29803;51.048;4.686;2023-09-19T09:28:26;11.20;;;2.60;;
44139;SDS011;29803;51.048;4.686;2023-09-19T09:30:59;16.88;;;3.08;;
44139;SDS011;29803;51.048;4.686;2023-09-19T09:33:38;15.63;;;2.60;;
44139;SDS011;29803;51.048;4.686;2023-09-19T09:36:09;10.48;;;2.28;;
44139;SDS011;29803;51.048;4.686;2023-09-19T09:38:43;9.55;;;2.35;;
44139;SDS011;29803;51.048;4.686;2023-09-19T09:41:16;12.98;;;2.65;;
44139;SDS011;29803;51.048;4.686;2023-09-19T09:43:57;14.23;;;2.70;;
44139;SDS011;29803;51.048;4.686;2023-09-19T09:46:45;16.27;;;2.50;;
44139;SDS011;29803;51.048;4.686;2023-09-19T09:49:23;10.77;;;2.10;;
44139;SDS011;29803;51.048;4.686;2023-09-19T09:52:04;11.43;;;2.03;;
44139;SDS011;29803;51.048;4.686;2023-09-19T09:57:08;14.18;;;2.10;;
44139;SDS011;29803;51.048;4.686;2023-09-19T10:02:21;11.05;;;2.33;;
44139;SDS011;29803;51.048;4.686;2023-09-19T10:04:59;11.45;;;2.58;;
44139;SDS011;29803;51.048;4.686;2023-09-19T10:07:55;9.25;;;2.00;;
44139;SDS011;29803;51.048;4.686;2023-09-19T10:13:13;11.50;;;2.30;;
44139;SDS011;29803;51.048;4.686;2023-09-19T10:15:47;18.00;;;2.33;;
44139;SDS011;29803;51.048;4.686;2023-09-19T10:18:21;10.50;;;2.15;;
44139;SDS011;29803;51.048;4.686;2023-09-19T10:20:54;7.47;;;2.42;;
44139;SDS011;29803;51.048;4.686;2023-09-19T10:23:26;9.23;;;2.03;;
44139;SDS011;29803;51.048;4.686;2023-09-19T10:26:01;7.18;;;1.98;;
44139;SDS011;29803;51.048;4.686;2023-09-19T10:28:32;11.10;;;2.05;;
44139;SDS011;29803;51.048;4.686;2023-09-19T10:31:05;8.68;;;2.25;;
44139;SDS011;29803;51.048;4.686;2023-09-19T10:33:39;9.95;;;1.95;;
44139;SDS011;29803;51.048;4.686;2023-09-19T10:36:11;8.85;;;1.70;;
44139;SDS011;29803;51.048;4.686;2023-09-19T10:38:43;11.00;;;2.20;;
44139;SDS011;29803;51.048;4.686;2023-09-19T10:41:16;6.25;;;1.40;;
44139;SDS011;29803;51.048;4.686;2023-09-19T10:43:48;11.23;;;1.83;;
44139;SDS011;29803;51.048;4.686;2023-09-19T10:46:21;10.60;;;1.73;;
44139;SDS011;29803;51.048;4.686;2023-09-19T10:48:51;10.98;;;2.10;;
44139;SDS011;29803;51.048;4.686;2023-09-19T10:51:24;13.63;;;1.92;;
44139;SDS011;29803;51.048;4.686;2023-09-19T10:54:04;12.43;;;1.95;;
44139;SDS011;29803;51.048;4.686;2023-09-19T10:56:44;11.98;;;1.98;;
44139;SDS011;29803;51.048;4.686;2023-09-19T10:59:19;7.68;;;1.55;;
44139;SDS011;29803;51.048;4.686;2023-09-19T11:01:52;7.10;;;1.42;;
44139;SDS011;29803;51.048;4.686;2023-09-19T11:04:29;9.20;;;1.90;;
44139;SDS011;29803;51.048;4.686;2023-09-19T11:09:44;9.60;;;1.40;;
44139;SDS011;29803;51.048;4.686;2023-09-19T11:18:50;7.95;;;1.38;;
44139;SDS011;29803;51.048;4.686;2023-09-19T11:26:57;3.75;;;1.10;;
44139;SDS011;29803;51.048;4.686;2023-09-19T11:29:40;5.88;;;1.20;;
44139;SDS011;29803;51.048;4.686;2023-09-19T11:32:11;3.90;;;1.40;;
44139;SDS011;29803;51.048;4.686;2023-09-19T11:34:42;5.85;;;1.05;;
44139;SDS011;29803;51.048;4.686;2023-09-19T11:42:46;4.05;;;1.15;;
44139;SDS011;29803;51.048;4.686;2023-09-19T11:48:18;9.93;;;1.30;;
44139;SDS011;29803;51.048;4.686;2023-09-19T11:50:48;7.75;;;1.30;;
44139;SDS011;29803;51.048;4.686;2023-09-19T11:53:21;14.13;;;1.90;;
44139;SDS011;29803;51.048;4.686;2023-09-19T11:55:53;5.05;;;1.25;;
44139;SDS011;29803;51.048;4.686;2023-09-19T11:58:23;2.30;;;0.70;;
44139;SDS011;29803;51.048;4.686;2023-09-19T12:00:56;6.72;;;0.93;;
44139;SDS011;29803;51.048;4.686;2023-09-19T12:03:29;5.38;;;1.10;;
44139;SDS011;29803;51.048;4.686;2023-09-19T12:06:02;6.35;;;0.98;;
44139;SDS011;29803;51.048;4.686;2023-09-19T12:08:44;7.13;;;1.45;;
44139;SDS011;29803;51.048;4.686;2023-09-19T12:11:18;6.82;;;1.15;;
44139;SDS011;29803;51.048;4.686;2023-09-19T12:13:50;10.68;;;1.60;;
44139;SDS011;29803;51.048;4.686;2023-09-19T12:16:23;10.32;;;1.33;;
44139;SDS011;29803;51.048;4.686;2023-09-19T12:18:54;9.35;;;1.20;;
44139;SDS011;29803;51.048;4.686;2023-09-19T12:26:39;8.02;;;1.85;;
44139;SDS011;29803;51.048;4.686;2023-09-19T12:29:16;10.02;;;1.55;;
44139;SDS011;29803;51.048;4.686;2023-09-19T12:31:48;4.07;;;1.17;;
44139;SDS011;29803;51.048;4.686;2023-09-19T12:34:21;6.20;;;1.25;;
44139;SDS011;29803;51.048;4.686;2023-09-19T12:37:04;4.93;;;1.55;;
44139;SDS011;29803;51.048;4.686;2023-09-19T12:39:44;4.30;;;1.25;;
44139;SDS011;29803;51.048;4.686;2023-09-19T12:42:24;9.45;;;2.33;;
44139;SDS011;29803;51.048;4.686;2023-09-19T12:45:02;9.70;;;1.42;;
44139;SDS011;29803;51.048;4.686;2023-09-19T12:47:39;8.40;;;1.25;;
44139;SDS011;29803;51.048;4.686;2023-09-19T12:50:14;6.90;;;1.40;;
44139;SDS011;29803;51.048;4.686;2023-09-19T12:52:59;5.88;;;1.20;;
44139;SDS011;29803;51.048;4.686;2023-09-19T12:55:31;7.13;;;1.40;;
44139;SDS011;29803;51.048;4.686;2023-09-19T13:00:37;5.10;;;1.10;;
44139;SDS011;29803;51.048;4.686;2023-09-19T13:03:24;9.45;;;1.45;;
44139;SDS011;29803;51.048;4.686;2023-09-19T13:05:57;7.15;;;1.13;;
44139;SDS011;29803;51.048;4.686;2023-09-19T13:08:31;3.83;;;1.33;;
44139;SDS011;29803;51.048;4.686;2023-09-19T13:11:13;4.53;;;0.90;;
44139;SDS011;29803;51.048;4.686;2023-09-19T13:16:24;7.80;;;1.25;;
44139;SDS011;29803;51.048;4.686;2023-09-19T13:18:55;7.30;;;1.10;;
44139;SDS011;29803;51.048;4.686;2023-09-19T13:21:29;9.57;;;1.67;;
44139;SDS011;29803;51.048;4.686;2023-09-19T13:24:25;4.70;;;1.30;;
44139;SDS011;29803;51.048;4.686;2023-09-19T13:26:57;5.88;;;1.30;;
44139;SDS011;29803;51.048;4.686;2023-09-19T13:29:28;3.30;;;1.30;;
44139;SDS011;29803;51.048;4.686;2023-09-19T13:31:59;17.00;;;1.33;;
44139;SDS011;29803;51.048;4.686;2023-09-19T13:34:29;6.88;;;0.98;;
44139;SDS011;29803;51.048;4.686;2023-09-19T13:37:00;5.03;;;1.17;;
44139;SDS011;29803;51.048;4.686;2023-09-19T13:39:31;5.80;;;1.48;;
44139;SDS011;29803;51.048;4.686;2023-09-19T13:42:02;10.23;;;1.20;;
44139;SDS011;29803;51.048;4.686;2023-09-19T13:44:33;6.45;;;1.20;;
44139;SDS011;29803;51.048;4.686;2023-09-19T13:47:03;11.95;;;1.80;;
44139;SDS011;29803;51.048;4.686;2023-09-19T13:49:39;8.38;;;1.42;;
44139;SDS011;29803;51.048;4.686;2023-09-19T13:52:10;7.75;;;1.27;;
44139;SDS011;29803;51.048;4.686;2023-09-19T13:54:43;4.72;;;1.23;;
44139;SDS011;29803;51.048;4.686;2023-09-19T13:57:13;7.75;;;1.10;;
44139;SDS011;29803;51.048;4.686;2023-09-19T13:59:44;17.48;;;1.83;;
44139;SDS011;29803;51.048;4.686;2023-09-19T14:02:14;7.25;;;1.15;;
44139;SDS011;29803;51.048;4.686;2023-09-19T14:04:48;7.40;;;1.33;;
44139;SDS011;29803;51.048;4.686;2023-09-19T14:07:19;4.38;;;1.58;;
44139;SDS011;29803;51.048;4.686;2023-09-19T14:09:50;7.07;;;1.45;;
44139;SDS011;29803;51.048;4.686;2023-09-19T14:12:21;5.45;;;1.33;;
44139;SDS011;29803;51.048;4.686;2023-09-19T14:14:51;5.65;;;1.10;;
44139;SDS011;29803;51.048;4.686;2023-09-19T14:17:22;7.97;;;1.70;;
44139;SDS011;29803;51.048;4.686;2023-09-19T14:19:52;6.43;;;1.48;;
44139;SDS011;29803;51.048;4.686;2023-09-19T14:22:23;7.25;;;1.33;;
44139;SDS011;29803;51.048;4.686;2023-09-19T14:24:53;6.75;;;1.30;;
44139;SDS011;29803;51.048;4.686;2023-09-19T14:27:25;6.28;;;1.30;;
44139;SDS011;29803;51.048;4.686;2023-09-19T14:29:55;6.90;;;1.83;;
44139;SDS011;29803;51.048;4.686;2023-09-19T14:32:27;5.45;;;1.40;;
44139;SDS011;29803;51.048;4.686;2023-09-19T14:34:57;5.30;;;1.67;;
44139;SDS011;29803;51.048;4.686;2023-09-19T14:37:28;5.32;;;1.50;;
44139;SDS011;29803;51.048;4.686;2023-09-19T14:39:59;6.28;;;1.75;;
44139;SDS011;29803;51.048;4.686;2023-09-19T14:42:29;6.97;;;1.70;;
44139;SDS011;29803;51.048;4.686;2023-09-19T14:45:00;9.13;;;1.67;;
44139;SDS011;29803;51.048;4.686;2023-09-19T14:47:31;3.38;;;1.30;;
44139;SDS011;29803;51.048;4.686;2023-09-19T14:50:04;6.03;;;1.23;;
44139;SDS011;29803;51.048;4.686;2023-09-19T14:52:36;8.80;;;1.75;;
44139;SDS011;29803;51.048;4.686;2023-09-19T14:55:07;9.25;;;1.70;;
44139;SDS011;29803;51.048;4.686;2023-09-19T14:57:40;7.60;;;1.58;;
44139;SDS011;29803;51.048;4.686;2023-09-19T15:00:11;7.75;;;1.85;;
44139;SDS011;29803;51.048;4.686;2023-09-19T15:02:43;7.90;;;2.05;;
44139;SDS011;29803;51.048;4.686;2023-09-19T15:05:16;5.93;;;1.50;;
44139;SDS011;29803;51.048;4.686;2023-09-19T15:07:47;7.55;;;1.38;;
44139;SDS011;29803;51.048;4.686;2023-09-19T15:10:18;8.88;;;1.48;;
44139;SDS011;29803;51.048;4.686;2023-09-19T15:12:49;15.23;;;2.00;;
44139;SDS011;29803;51.048;4.686;2023-09-19T15:15:19;9.40;;;1.95;;
44139;SDS011;29803;51.048;4.686;2023-09-19T15:17:50;6.60;;;1.50;;
44139;SDS011;29803;51.048;4.686;2023-09-19T15:20:21;5.70;;;1.60;;
44139;SDS011;29803;51.048;4.686;2023-09-19T15:22:51;8.40;;;1.90;;
44139;SDS011;29803;51.048;4.686;2023-09-19T15:25:22;8.40;;;1.85;;
44139;SDS011;29803;51.048;4.686;2023-09-19T15:27:53;8.25;;;1.33;;
44139;SDS011;29803;51.048;4.686;2023-09-19T15:30:24;5.43;;;1.80;;
44139;SDS011;29803;51.048;4.686;2023-09-19T15:32:54;8.45;;;1.95;;
44139;SDS011;29803;51.048;4.686;2023-09-19T15:35:25;4.75;;;1.38;;
44139;SDS011;29803;51.048;4.686;2023-09-19T15:37:55;7.78;;;1.90;;
44139;SDS011;29803;51.048;4.686;2023-09-19T15:40:26;5.50;;;1.42;;
44139;SDS011;29803;51.048;4.686;2023-09-19T15:42:57;5.35;;;1.70;;
44139;SDS011;29803;51.048;4.686;2023-09-19T15:45:27;9.00;;;1.80;;
44139;SDS011;29803;51.048;4.686;2023-09-19T15:47:58;6.57;;;1.70;;
44139;SDS011;29803;51.048;4.686;2023-09-19T15:50:28;6.53;;;1.98;;
44139;SDS011;29803;51.048;4.686;2023-09-19T15:52:59;7.53;;;1.48;;
44139;SDS011;29803;51.048;4.686;2023-09-19T15:55:30;10.82;;;1.83;;
44139;SDS011;29803;51.048;4.686;2023-09-19T15:58:01;8.18;;;2.00;;
44139;SDS011;29803;51.048;4.686;2023-09-19T16:00:32;8.40;;;1.70;;
44139;SDS011;29803;51.048;4.686;2023-09-19T16:03:06;8.60;;;1.70;;
44139;SDS011;29803;51.048;4.686;2023-09-19T16:05:37;10.13;;;1.83;;
44139;SDS011;29803;51.048;4.686;2023-09-19T16:08:09;7.70;;;1.88;;